Time;durP1;ratioP1;P1;durP2;ratioP2;P2;SDS_P1;SDS_P2;PMS_P1;PMS_P2;Temp;Humidity;BMP_temperature;BMP_pressure;BME280_temperature;BME280_humidity;BME280_pressure;Samples;Min_cycle;Max_cycle;Signal;HPM_P1;HPM_P2
2024/01/23 00:01:26;;;;;;;18.33;3.97;;;;;;;;;;5048434;28;20049;-63
2024/01/23 00:03:52;;;;;;;14.43;3.50;;;;;;;;;;5047384;28;20049;-63
2024/01/23 00:06:18;;;;;;;23.67;3.63;;;;;;;;;;5048186;28;20045;-63
2024/01/23 00:08:44;;;;;;;16.77;5.17;;;;;;;;;;5061197;28;20048;-63
2024/01/23 00:11:10;;;;;;;18.77;2.97;;;;;;;;;;5067020;28;20502;-63
2024/01/23 00:13:36;;;;;;;24.23;5.23;;;;;;;;;;5048013;28;20419;-63
2024/01/23 00:16:03;;;;;;;22.00;4.13;;;;;;;;;;5048023;28;20351;-63
2024/01/23 00:18:29;;;;;;;24.53;3.43;;;;;;;;;;5060450;28;20052;-63
2024/01/23 00:20:55;;;;;;;22.27;3.60;;;;;;;;;;5068125;28;20052;-63
2024/01/23 00:23:21;;;;;;;22.73;3.33;;;;;;;;;;5068248;28;20087;-63
2024/01/23 00:25:48;;;;;;;18.23;3.63;;;;;;;;;;5067631;28;20045;-63
2024/01/23 00:28:14;;;;;;;23.57;3.47;;;;;;;;;;5068088;28;20134;-63
2024/01/23 00:30:40;;;;;;;20.50;3.70;;;;;;;;;;5067681;28;20537;-63
2024/01/23 00:33:06;;;;;;;20.07;3.70;;;;;;;;;;5067990;28;20057;-63
2024/01/23 00:35:32;;;;;;;19.43;3.20;;;;;;;;;;5067114;28;20044;-63
2024/01/23 00:37:58;;;;;;;20.97;4.67;;;;;;;;;;5067363;28;20044;-63
2024/01/23 00:40:24;;;;;;;18.43;3.20;;;;;;;;;;5067739;28;20040;-63
2024/01/23 00:42:51;;;;;;;22.77;3.60;;;;;;;;;;5069989;28;20052;-63
2024/01/23 00:45:17;;;;;;;11.67;3.43;;;;;;;;;;5069376;28;20470;-63
2024/01/23 00:47:43;;;;;;;15.93;3.33;;;;;;;;;;5069938;28;20090;-63
2024/01/23 00:50:09;;;;;;;15.60;2.93;;;;;;;;;;5051424;28;20044;-63
2024/01/23 00:52:35;;;;;;;25.83;3.97;;;;;;;;;;5051810;28;20065;-63
2024/01/23 00:55:03;;;;;;;18.40;3.10;;;;;;;;;;5050411;28;20060;-64
2024/01/23 00:57:30;;;;;;;19.07;3.20;;;;;;;;;;5050270;28;20045;-64
2024/01/23 00:59:56;;;;;;;17.83;3.47;;;;;;;;;;5049850;28;20414;-64
2024/01/23 01:02:22;;;;;;;17.93;3.37;;;;;;;;;;5050151;28;20048;-63
2024/01/23 01:04:48;;;;;;;20.77;3.80;;;;;;;;;;5050347;28;20049;-64
2024/01/23 01:07:14;;;;;;;16.03;3.27;;;;;;;;;;5050503;28;20049;-63
2024/01/23 01:09:40;;;;;;;18.30;3.63;;;;;;;;;;5048300;28;20147;-64
2024/01/23 01:12:07;;;;;;;19.93;5.70;;;;;;;;;;5049987;28;20505;-64
2024/01/23 01:14:37;;;;;;;29.37;3.80;;;;;;;;;;5049455;28;20041;-63
2024/01/23 01:17:04;;;;;;;21.43;4.57;;;;;;;;;;5049970;28;20417;-64
2024/01/23 01:19:30;;;;;;;24.00;4.53;;;;;;;;;;5049474;28;20052;-64
2024/01/23 01:21:56;;;;;;;16.73;3.00;;;;;;;;;;5050477;28;20407;-63
2024/01/23 01:24:22;;;;;;;17.67;3.33;;;;;;;;;;5049561;28;20122;-64
2024/01/23 01:26:48;;;;;;;18.97;3.47;;;;;;;;;;5050247;28;20052;-64
2024/01/23 01:29:14;;;;;;;27.63;3.80;;;;;;;;;;5049483;28;20049;-64
2024/01/23 01:31:40;;;;;;;21.10;4.10;;;;;;;;;;5049679;28;20392;-64
2024/01/23 01:34:06;;;;;;;20.70;5.00;;;;;;;;;;5049342;28;20539;-64
2024/01/23 01:36:32;;;;;;;18.47;3.63;;;;;;;;;;5050144;28;20048;-64
2024/01/23 01:39:00;;;;;;;18.00;4.43;;;;;;;;;;5050579;28;20049;-63
2024/01/23 01:41:27;;;;;;;23.73;5.53;;;;;;;;;;5050220;28;20041;-63
2024/01/23 01:43:53;;;;;;;15.10;4.27;;;;;;;;;;5050490;28;20110;-64
2024/01/23 01:46:23;;;;;;;25.83;3.60;;;;;;;;;;5050224;28;20052;-63
2024/01/23 01:48:50;;;;;;;23.10;3.87;;;;;;;;;;5050160;28;20487;-63
2024/01/23 01:51:17;;;;;;;23.83;3.97;;;;;;;;;;5050204;28;20133;-63
2024/01/23 01:53:44;;;;;;;21.57;3.40;;;;;;;;;;5048632;28;20049;-63
2024/01/23 01:56:10;;;;;;;24.73;5.53;;;;;;;;;;5049811;28;20045;-63
2024/01/23 01:58:36;;;;;;;25.23;6.13;;;;;;;;;;5050017;28;20113;-64
2024/01/23 02:01:03;;;;;;;26.53;4.77;;;;;;;;;;5067098;28;20049;-64
2024/01/23 02:03:29;;;;;;;20.00;3.37;;;;;;;;;;5069359;28;20064;-64
2024/01/23 02:05:57;;;;;;;19.47;4.23;;;;;;;;;;5069787;28;20501;-64
2024/01/23 02:08:23;;;;;;;17.33;4.37;;;;;;;;;;5069911;28;20041;-64
2024/01/23 02:10:49;;;;;;;14.87;4.03;;;;;;;;;;5069464;28;20047;-64
2024/01/23 02:13:15;;;;;;;26.70;6.40;;;;;;;;;;5069666;28;20041;-63
2024/01/23 02:15:41;;;;;;;21.77;3.77;;;;;;;;;;5069244;28;20418;-63
2024/01/23 02:18:07;;;;;;;19.03;5.43;;;;;;;;;;5068691;28;20454;-63
2024/01/23 02:20:33;;;;;;;22.33;6.50;;;;;;;;;;5069472;28;20162;-63
2024/01/23 02:22:59;;;;;;;18.70;3.90;;;;;;;;;;5069557;28;20075;-64
2024/01/23 02:25:25;;;;;;;18.47;4.93;;;;;;;;;;5069014;28;20090;-63
2024/01/23 02:27:53;;;;;;;26.17;5.27;;;;;;;;;;5069481;28;20806;-63
2024/01/23 02:30:19;;;;;;;28.63;6.97;;;;;;;;;;5051786;28;20071;-64
2024/01/23 02:32:45;;;;;;;26.70;5.50;;;;;;;;;;5048784;28;20049;-63
2024/01/23 02:35:11;;;;;;;19.63;4.43;;;;;;;;;;5049080;28;20452;-64
2024/01/23 02:37:37;;;;;;;20.30;4.57;;;;;;;;;;5048066;28;20414;-63
2024/01/23 02:40:04;;;;;;;26.43;4.47;;;;;;;;;;5047447;28;20128;-63
2024/01/23 02:42:30;;;;;;;18.80;3.20;;;;;;;;;;5048172;28;20041;-63
2024/01/23 02:44:56;;;;;;;33.00;3.93;;;;;;;;;;5048202;28;20057;-63
2024/01/23 02:47:22;;;;;;;16.37;3.27;;;;;;;;;;5049023;28;20406;-63
2024/01/23 02:49:48;;;;;;;21.63;4.47;;;;;;;;;;5048917;28;20052;-63
2024/01/23 02:52:14;;;;;;;20.10;6.00;;;;;;;;;;5049312;28;20053;-64
2024/01/23 02:54:40;;;;;;;23.70;4.53;;;;;;;;;;5048809;28;20495;-64
2024/01/23 02:57:06;;;;;;;21.13;3.30;;;;;;;;;;5048710;28;20045;-64
2024/01/23 02:59:32;;;;;;;37.00;5.97;;;;;;;;;;5048389;28;20048;-63
2024/01/23 03:01:58;;;;;;;22.70;4.07;;;;;;;;;;5049000;28;20071;-63
2024/01/23 03:04:24;;;;;;;22.00;4.40;;;;;;;;;;5048861;28;20045;-64
2024/01/23 03:06:51;;;;;;;25.50;4.33;;;;;;;;;;5049047;28;20060;-64
2024/01/23 03:09:17;;;;;;;19.80;4.50;;;;;;;;;;5067216;28;20124;-64
2024/01/23 03:11:43;;;;;;;24.13;3.87;;;;;;;;;;5068745;28;20044;-63
2024/01/23 03:14:10;;;;;;;25.47;5.27;;;;;;;;;;5067608;28;20052;-64
2024/01/23 03:16:36;;;;;;;26.80;4.67;;;;;;;;;;5068631;28;20048;-64
2024/01/23 03:19:02;;;;;;;18.53;4.30;;;;;;;;;;5068805;28;20135;-64
2024/01/23 03:21:29;;;;;;;26.93;5.47;;;;;;;;;;5067992;28;20041;-64
2024/01/23 03:23:57;;;;;;;27.43;3.87;;;;;;;;;;5068416;28;20045;-63
2024/01/23 03:26:24;;;;;;;20.87;4.13;;;;;;;;;;5067918;28;20127;-64
2024/01/23 03:28:50;;;;;;;28.40;5.83;;;;;;;;;;5067973;28;20044;-64
2024/01/23 03:31:16;;;;;;;26.67;4.00;;;;;;;;;;5068328;28;20098;-64
2024/01/23 03:33:42;;;;;;;24.70;4.70;;;;;;;;;;5058105;28;20472;-64
2024/01/23 03:36:08;;;;;;;22.10;4.63;;;;;;;;;;5047785;28;20041;-64
2024/01/23 03:38:34;;;;;;;22.13;4.50;;;;;;;;;;5048387;28;20099;-64
2024/01/23 03:41:00;;;;;;;22.63;4.10;;;;;;;;;;5048676;28;20048;-64
2024/01/23 03:43:26;;;;;;;26.27;5.43;;;;;;;;;;5048294;28;20045;-64
2024/01/23 03:45:52;;;;;;;24.80;4.93;;;;;;;;;;5048764;28;20049;-64
2024/01/23 03:48:18;;;;;;;19.77;3.80;;;;;;;;;;5048022;28;20059;-63
2024/01/23 03:50:45;;;;;;;22.23;4.80;;;;;;;;;;5048213;28;20041;-63
2024/01/23 03:53:11;;;;;;;24.70;5.90;;;;;;;;;;5048350;28;20159;-64
2024/01/23 03:55:37;;;;;;;20.67;3.83;;;;;;;;;;5048116;28;20095;-64
2024/01/23 03:58:03;;;;;;;34.10;6.10;;;;;;;;;;5045960;28;20062;-64
2024/01/23 04:00:29;;;;;;;20.20;4.33;;;;;;;;;;5048146;28;20049;-64
2024/01/23 04:02:56;;;;;;;23.93;4.30;;;;;;;;;;5047365;28;20079;-64
2024/01/23 04:05:22;;;;;;;27.40;5.20;;;;;;;;;;5047953;28;20044;-64
2024/01/23 04:07:48;;;;;;;21.80;5.10;;;;;;;;;;5046982;28;20053;-64
2024/01/23 04:10:14;;;;;;;21.67;5.43;;;;;;;;;;5047798;28;20048;-64
2024/01/23 04:12:41;;;;;;;22.20;4.00;;;;;;;;;;5046396;28;20484;-64
2024/01/23 04:15:07;;;;;;;25.23;5.40;;;;;;;;;;5048812;28;20048;-64
2024/01/23 04:17:33;;;;;;;34.17;5.83;;;;;;;;;;5069371;28;20047;-64
2024/01/23 04:19:59;;;;;;;24.83;4.20;;;;;;;;;;5051793;28;20076;-64
2024/01/23 04:22:26;;;;;;;26.57;5.17;;;;;;;;;;5052364;28;20503;-64
2024/01/23 04:24:52;;;;;;;22.43;4.80;;;;;;;;;;5051186;28;20619;-64
2024/01/23 04:27:18;;;;;;;20.60;4.10;;;;;;;;;;5050987;28;20048;-64
2024/01/23 04:29:44;;;;;;;21.90;4.30;;;;;;;;;;5050744;28;20080;-64
2024/01/23 04:32:10;;;;;;;26.13;4.97;;;;;;;;;;5051168;28;20518;-64
2024/01/23 04:34:36;;;;;;;26.50;3.90;;;;;;;;;;5050414;28;20049;-64
2024/01/23 04:37:02;;;;;;;22.30;4.67;;;;;;;;;;5051169;28;20063;-64
2024/01/23 04:39:28;;;;;;;25.57;4.77;;;;;;;;;;5040397;28;20088;-64
2024/01/23 04:41:54;;;;;;;21.40;4.77;;;;;;;;;;5033214;28;20114;-64
2024/01/23 04:44:20;;;;;;;26.57;4.87;;;;;;;;;;5049933;28;20085;-64
2024/01/23 04:46:46;;;;;;;19.80;3.97;;;;;;;;;;5050939;28;20061;-64
2024/01/23 04:49:13;;;;;;;26.80;4.67;;;;;;;;;;5050319;28;20418;-63
2024/01/23 04:51:39;;;;;;;19.60;5.10;;;;;;;;;;5051201;28;20428;-64
2024/01/23 04:54:05;;;;;;;24.20;5.40;;;;;;;;;;5049887;28;20049;-64
2024/01/23 04:56:31;;;;;;;30.13;5.40;;;;;;;;;;5051194;28;20347;-64
2024/01/23 04:58:57;;;;;;;20.10;4.93;;;;;;;;;;5050156;28;20044;-64
2024/01/23 05:01:23;;;;;;;27.50;4.67;;;;;;;;;;5050920;28;20120;-64
2024/01/23 05:03:49;;;;;;;21.03;3.63;;;;;;;;;;5044689;28;20049;-64
2024/01/23 05:06:15;;;;;;;26.87;5.27;;;;;;;;;;5030834;28;20037;-64
2024/01/23 05:08:41;;;;;;;27.57;5.43;;;;;;;;;;5034043;28;20045;-64
2024/01/23 05:11:07;;;;;;;20.37;4.77;;;;;;;;;;5050781;28;20045;-64
2024/01/23 05:13:33;;;;;;;24.97;5.53;;;;;;;;;;5045173;28;20073;-64
2024/01/23 05:15:59;;;;;;;36.60;5.30;;;;;;;;;;5039476;28;20045;-64
2024/01/23 05:18:26;;;;;;;27.97;4.53;;;;;;;;;;5049409;28;20044;-64
2024/01/23 05:20:52;;;;;;;31.93;5.20;;;;;;;;;;5049883;28;20049;-64
2024/01/23 05:23:18;;;;;;;26.40;4.80;;;;;;;;;;5049899;28;20049;-64
2024/01/23 05:25:44;;;;;;;25.17;6.03;;;;;;;;;;5030751;28;20049;-64
2024/01/23 05:28:10;;;;;;;23.83;4.73;;;;;;;;;;5030023;28;20045;-64
2024/01/23 05:30:36;;;;;;;20.33;5.00;;;;;;;;;;5048634;28;20128;-64
2024/01/23 05:33:02;;;;;;;30.60;5.00;;;;;;;;;;5050191;28;20063;-64
2024/01/23 05:35:28;;;;;;;24.67;5.13;;;;;;;;;;5050058;28;21012;-64
2024/01/23 05:37:54;;;;;;;22.93;4.67;;;;;;;;;;5049957;28;20045;-64
2024/01/23 05:40:20;;;;;;;34.70;7.73;;;;;;;;;;5051111;28;20057;-64
2024/01/23 05:42:46;;;;;;;36.73;7.43;;;;;;;;;;5050452;28;20608;-64
2024/01/23 05:45:13;;;;;;;27.57;5.60;;;;;;;;;;5049719;28;20144;-64
2024/01/23 05:47:39;;;;;;;30.97;4.87;;;;;;;;;;5049853;28;20053;-64
2024/01/23 05:50:05;;;;;;;30.13;6.37;;;;;;;;;;5050071;28;20131;-63
2024/01/23 05:52:31;;;;;;;28.37;5.47;;;;;;;;;;5050119;28;20052;-64
2024/01/23 05:54:59;;;;;;;26.97;6.30;;;;;;;;;;5049966;28;20501;-64
2024/01/23 05:57:26;;;;;;;30.57;5.47;;;;;;;;;;5053193;28;20051;-64
2024/01/23 05:59:52;;;;;;;32.70;5.77;;;;;;;;;;5062270;28;20600;-64
2024/01/23 06:02:18;;;;;;;25.27;5.70;;;;;;;;;;5050106;28;20131;-64
2024/01/23 06:04:44;;;;;;;35.00;7.80;;;;;;;;;;5050258;28;20098;-64
2024/01/23 06:07:10;;;;;;;35.87;6.90;;;;;;;;;;5048593;28;20080;-64
2024/01/23 06:09:36;;;;;;;46.23;6.20;;;;;;;;;;5049939;28;20041;-64
2024/01/23 06:12:02;;;;;;;32.53;6.83;;;;;;;;;;5049334;28;20503;-64
2024/01/23 06:14:28;;;;;;;27.97;6.43;;;;;;;;;;5050434;28;20051;-64
2024/01/23 06:16:54;;;;;;;31.70;5.93;;;;;;;;;;5049417;28;20095;-64
2024/01/23 06:19:22;;;;;;;25.03;4.70;;;;;;;;;;5049730;28;20067;-64
2024/01/23 06:21:48;;;;;;;22.63;5.73;;;;;;;;;;5049629;28;20518;-64
2024/01/23 06:24:14;;;;;;;35.00;5.07;;;;;;;;;;5049253;28;20049;-64
2024/01/23 06:26:40;;;;;;;37.30;7.60;;;;;;;;;;5048985;28;20071;-64
2024/01/23 06:29:06;;;;;;;30.57;5.47;;;;;;;;;;5047694;28;20396;-64
2024/01/23 06:31:32;;;;;;;34.67;6.70;;;;;;;;;;5047282;28;20045;-64
2024/01/23 06:33:58;;;;;;;28.13;5.10;;;;;;;;;;5047061;28;20045;-64
2024/01/23 06:36:24;;;;;;;34.23;6.83;;;;;;;;;;5048895;28;20500;-64
2024/01/23 06:38:50;;;;;;;29.37;5.20;;;;;;;;;;5048169;28;20045;-64
2024/01/23 06:41:16;;;;;;;33.63;5.07;;;;;;;;;;5047114;28;20045;-64
2024/01/23 06:43:42;;;;;;;32.50;5.57;;;;;;;;;;5047596;28;20048;-64
2024/01/23 06:46:08;;;;;;;29.40;6.27;;;;;;;;;;5048854;28;20146;-64
2024/01/23 06:48:34;;;;;;;27.53;5.67;;;;;;;;;;5053539;28;20053;-64
2024/01/23 06:51:00;;;;;;;28.87;5.43;;;;;;;;;;5052074;28;20110;-64
2024/01/23 06:53:26;;;;;;;33.97;7.47;;;;;;;;;;5048944;28;20458;-64
2024/01/23 06:55:52;;;;;;;28.10;6.30;;;;;;;;;;5048910;28;20419;-64
2024/01/23 06:58:19;;;;;;;30.77;5.27;;;;;;;;;;5048869;28;20514;-64
2024/01/23 07:00:45;;;;;;;23.73;5.00;;;;;;;;;;5044440;28;20045;-64
2024/01/23 07:03:11;;;;;;;28.77;5.20;;;;;;;;;;5049314;28;20346;-64
2024/01/23 07:05:37;;;;;;;27.70;4.97;;;;;;;;;;5049699;28;20092;-64
2024/01/23 07:08:03;;;;;;;32.23;8.00;;;;;;;;;;5048545;28;20508;-64
2024/01/23 07:10:30;;;;;;;37.97;5.10;;;;;;;;;;5048653;28;20128;-64
2024/01/23 07:12:56;;;;;;;36.30;4.83;;;;;;;;;;5048310;28;20041;-64
2024/01/23 07:15:22;;;;;;;25.67;6.20;;;;;;;;;;5048487;28;20118;-64
2024/01/23 07:17:48;;;;;;;31.77;6.17;;;;;;;;;;5048632;28;20040;-64
2024/01/23 07:20:14;;;;;;;32.57;6.43;;;;;;;;;;5048582;28;20052;-64
2024/01/23 07:22:40;;;;;;;29.97;5.70;;;;;;;;;;5048596;28;20124;-64
2024/01/23 07:25:07;;;;;;;29.00;5.23;;;;;;;;;;5048263;28;20052;-64
2024/01/23 07:27:33;;;;;;;33.40;5.93;;;;;;;;;;5048758;28;20155;-64
2024/01/23 07:29:59;;;;;;;33.43;5.67;;;;;;;;;;5048227;28;20129;-64
2024/01/23 07:32:25;;;;;;;24.87;5.97;;;;;;;;;;5048240;28;20135;-64
2024/01/23 07:34:51;;;;;;;26.77;5.17;;;;;;;;;;5048427;28;20056;-64
2024/01/23 07:37:17;;;;;;;26.87;5.00;;;;;;;;;;5048008;28;20119;-64
2024/01/23 07:39:43;;;;;;;29.47;5.63;;;;;;;;;;5053880;28;20524;-64
2024/01/23 07:42:11;;;;;;;32.10;7.27;;;;;;;;;;5067928;28;20060;-64
2024/01/23 07:44:39;;;;;;;32.00;5.20;;;;;;;;;;5066360;28;20057;-64
2024/01/23 07:47:05;;;;;;;36.50;6.07;;;;;;;;;;5067971;28;20049;-64
2024/01/23 07:49:32;;;;;;;32.10;6.63;;;;;;;;;;5067975;28;20044;-64
2024/01/23 07:51:58;;;;;;;29.07;8.37;;;;;;;;;;5068905;28;20132;-64
2024/01/23 07:54:24;;;;;;;30.43;7.63;;;;;;;;;;5072135;28;20048;-64
2024/01/23 07:56:51;;;;;;;28.63;6.07;;;;;;;;;;5071438;28;20052;-64
2024/01/23 07:59:17;;;;;;;35.77;7.27;;;;;;;;;;5071762;28;20471;-64
2024/01/23 08:01:43;;;;;;;35.80;7.43;;;;;;;;;;5072030;28;20097;-64
2024/01/23 08:04:12;;;;;;;28.30;6.17;;;;;;;;;;5072147;28;20040;-64
2024/01/23 08:06:39;;;;;;;28.60;6.93;;;;;;;;;;5071947;28;20410;-64
2024/01/23 08:09:05;;;;;;;36.20;7.93;;;;;;;;;;5071901;28;20067;-64
2024/01/23 08:11:31;;;;;;;21.63;6.37;;;;;;;;;;5072336;28;20044;-64
2024/01/23 08:13:57;;;;;;;36.20;7.03;;;;;;;;;;5070390;28;20040;-64
2024/01/23 08:16:25;;;;;;;35.30;6.17;;;;;;;;;;5071829;28;20049;-64
2024/01/23 08:18:51;;;;;;;45.97;7.00;;;;;;;;;;5071937;28;20083;-64
2024/01/23 08:21:17;;;;;;;27.67;5.30;;;;;;;;;;5049822;28;20068;-64
2024/01/23 08:23:46;;;;;;;42.37;6.73;;;;;;;;;;5049295;28;20055;-64
2024/01/23 08:26:12;;;;;;;40.57;7.73;;;;;;;;;;5037894;28;20055;-64
2024/01/23 08:28:42;;;;;;;37.23;6.17;;;;;;;;;;5051307;28;20041;-64
2024/01/23 08:31:08;;;;;;;28.37;5.97;;;;;;;;;;5050248;28;20511;-64
2024/01/23 08:33:34;;;;;;;31.90;6.37;;;;;;;;;;5048557;28;20053;-64
2024/01/23 08:36:01;;;;;;;35.43;6.77;;;;;;;;;;5048664;28;20075;-64
2024/01/23 08:38:27;;;;;;;31.57;5.63;;;;;;;;;;5048447;28;20064;-64
2024/01/23 08:40:53;;;;;;;42.33;5.80;;;;;;;;;;5050706;28;20087;-63
2024/01/23 08:43:19;;;;;;;36.23;6.97;;;;;;;;;;5051151;28;20049;-64
2024/01/23 08:45:45;;;;;;;31.73;7.07;;;;;;;;;;5048615;28;20574;-64
2024/01/23 08:48:11;;;;;;;44.73;7.53;;;;;;;;;;5049900;28;20088;-63
2024/01/23 08:50:37;;;;;;;30.80;6.27;;;;;;;;;;5048134;28;20048;-63
2024/01/23 08:53:04;;;;;;;41.50;9.37;;;;;;;;;;5047947;28;20136;-63
2024/01/23 08:55:30;;;;;;;39.60;6.47;;;;;;;;;;5047893;28;20059;-64
2024/01/23 08:57:56;;;;;;;35.57;6.00;;;;;;;;;;5049726;28;20125;-64
2024/01/23 09:00:22;;;;;;;36.37;5.57;;;;;;;;;;5039714;28;20048;-64
2024/01/23 09:02:48;;;;;;;28.00;6.93;;;;;;;;;;5046028;28;20045;-64
2024/01/23 09:05:14;;;;;;;36.80;8.20;;;;;;;;;;5059475;28;20055;-64
2024/01/23 09:07:40;;;;;;;33.13;5.90;;;;;;;;;;5064052;28;20495;-63
2024/01/23 09:10:07;;;;;;;34.53;5.83;;;;;;;;;;5049021;28;20044;-63
2024/01/23 09:12:36;;;;;;;39.60;6.47;;;;;;;;;;5049245;28;20052;-63
2024/01/23 09:15:05;;;;;;;31.73;6.53;;;;;;;;;;5044068;28;20158;-63
2024/01/23 09:17:31;;;;;;;38.83;8.37;;;;;;;;;;5049921;28;20103;-63
2024/01/23 09:19:57;;;;;;;42.23;8.33;;;;;;;;;;5049232;28;20045;-63
2024/01/23 09:22:23;;;;;;;37.43;8.37;;;;;;;;;;5049230;28;20392;-64
2024/01/23 09:24:49;;;;;;;35.07;5.97;;;;;;;;;;5048226;28;20068;-63
2024/01/23 09:27:15;;;;;;;37.27;9.10;;;;;;;;;;5049250;28;20053;-64
2024/01/23 09:29:44;;;;;;;32.70;6.43;;;;;;;;;;5048677;28;20045;-64
2024/01/23 09:32:10;;;;;;;37.30;6.67;;;;;;;;;;5047276;28;20041;-63
2024/01/23 09:34:37;;;;;;;33.73;7.37;;;;;;;;;;5049349;28;20049;-64
2024/01/23 09:37:03;;;;;;;37.60;7.80;;;;;;;;;;5049407;28;20049;-64
2024/01/23 09:39:29;;;;;;;33.77;6.97;;;;;;;;;;5048964;28;20049;-63
2024/01/23 09:41:58;;;;;;;25.00;6.37;;;;;;;;;;5048486;28;20045;-64
2024/01/23 09:44:24;;;;;;;31.10;7.03;;;;;;;;;;5011654;28;1058226;-64
2024/01/23 09:46:51;;;;;;;32.10;7.00;;;;;;;;;;5050083;28;20049;-64
2024/01/23 09:49:18;;;;;;;35.17;6.73;;;;;;;;;;5050131;28;20055;-63
2024/01/23 09:51:48;;;;;;;32.63;6.67;;;;;;;;;;5049871;28;20049;-64
2024/01/23 09:54:14;;;;;;;35.80;9.23;;;;;;;;;;5050275;28;20049;-64
2024/01/23 09:56:40;;;;;;;32.97;5.43;;;;;;;;;;5063906;28;20049;-64
2024/01/23 09:59:09;;;;;;;36.27;7.40;;;;;;;;;;5049013;28;20053;-64
2024/01/23 10:01:35;;;;;;;27.00;5.83;;;;;;;;;;5049651;28;20041;-64
2024/01/23 10:04:04;;;;;;;34.77;6.23;;;;;;;;;;5048805;28;20075;-64
2024/01/23 10:06:30;;;;;;;26.80;4.87;;;;;;;;;;5047646;28;20075;-64
2024/01/23 10:08:56;;;;;;;30.67;6.43;;;;;;;;;;5046414;28;20048;-64
2024/01/23 10:11:22;;;;;;;35.77;6.87;;;;;;;;;;5048007;28;20053;-64
2024/01/23 10:13:48;;;;;;;36.53;6.43;;;;;;;;;;5033001;28;20061;-64
2024/01/23 10:16:17;;;;;;;23.87;5.83;;;;;;;;;;5026307;28;20049;-64
2024/01/23 10:18:48;;;;;;;26.83;6.57;;;;;;;;;;5026957;28;20042;-64
2024/01/23 10:21:15;;;;;;;32.80;6.27;;;;;;;;;;5028575;28;20049;-64
2024/01/23 10:23:42;;;;;;;29.77;6.63;;;;;;;;;;5029231;28;20049;-64
2024/01/23 10:26:08;;;;;;;30.07;5.37;;;;;;;;;;5028812;28;20049;-64
2024/01/23 10:28:35;;;;;;;31.80;5.77;;;;;;;;;;5028715;28;20045;-64
2024/01/23 10:31:02;;;;;;;29.50;6.40;;;;;;;;;;5028922;28;20122;-64
2024/01/23 10:33:28;;;;;;;31.47;5.47;;;;;;;;;;5028589;28;20051;-64
2024/01/23 10:35:54;;;;;;;28.23;7.27;;;;;;;;;;5028832;28;20045;-64
2024/01/23 10:38:20;;;;;;;36.03;6.03;;;;;;;;;;5028898;28;20424;-64
2024/01/23 10:40:47;;;;;;;26.70;6.00;;;;;;;;;;5028066;28;20045;-64
2024/01/23 10:43:13;;;;;;;29.30;7.40;;;;;;;;;;5028820;28;20156;-64
2024/01/23 10:45:40;;;;;;;30.03;6.97;;;;;;;;;;5028638;28;20163;-64
2024/01/23 10:48:07;;;;;;;25.70;5.83;;;;;;;;;;5028156;28;20053;-64
2024/01/23 10:50:34;;;;;;;33.87;4.93;;;;;;;;;;5028614;28;20067;-63
2024/01/23 10:53:05;;;;;;;34.07;7.93;;;;;;;;;;5028246;28;20120;-64
2024/01/23 10:55:32;;;;;;;27.73;6.80;;;;;;;;;;5028360;28;20095;-64
2024/01/23 10:58:02;;;;;;;36.90;6.13;;;;;;;;;;5028315;28;20049;-64
2024/01/23 11:00:29;;;;;;;20.97;5.97;;;;;;;;;;5028040;28;20061;-64
2024/01/23 11:03:04;;;;;;;26.53;5.07;;;;;;;;;;5028378;28;20041;-64
2024/01/23 11:06:03;;;;;;;21.00;5.27;;;;;;;;;;5028707;28;20053;-64
2024/01/23 11:08:36;;;;;;;35.43;6.43;;;;;;;;;;5005798;28;20057;-64
2024/01/23 11:11:15;;;;;;;20.58;5.70;;;;;;;;;;5028424;28;20096;-64
2024/01/23 11:13:47;;;;;;;28.77;5.70;;;;;;;;;;5028130;28;20057;-64
2024/01/23 11:16:13;;;;;;;29.57;6.33;;;;;;;;;;5027503;28;20422;-64
2024/01/23 11:18:40;;;;;;;34.47;6.80;;;;;;;;;;5028432;28;20064;-64
2024/01/23 11:21:09;;;;;;;29.50;6.37;;;;;;;;;;5028470;28;20419;-64
2024/01/23 11:23:39;;;;;;;23.77;5.53;;;;;;;;;;5028027;28;20045;-64
2024/01/23 11:26:22;;;;;;;34.07;6.43;;;;;;;;;;5027338;28;20503;-64
2024/01/23 11:28:50;;;;;;;23.45;5.82;;;;;;;;;;5028098;28;20053;-64
2024/01/23 11:31:23;;;;;;;32.40;6.03;;;;;;;;;;5027952;28;20072;-64
2024/01/23 11:33:51;;;;;;;26.08;5.30;;;;;;;;;;5027969;28;20056;-64
2024/01/23 11:36:30;;;;;;;30.80;6.43;;;;;;;;;;5027255;28;20048;-64
2024/01/23 11:38:57;;;;;;;29.30;5.43;;;;;;;;;;5027931;28;20053;-64
2024/01/23 11:41:24;;;;;;;29.93;5.00;;;;;;;;;;5026930;28;20124;-64
2024/01/23 11:44:02;;;;;;;28.83;5.20;;;;;;;;;;5027204;28;20052;-64
2024/01/23 11:46:30;;;;;;;30.13;6.73;;;;;;;;;;5027827;28;20093;-64
2024/01/23 11:48:56;;;;;;;28.27;5.87;;;;;;;;;;5027686;28;20057;-64
2024/01/23 11:51:22;;;;;;;28.07;6.90;;;;;;;;;;5027493;28;20056;-64
2024/01/23 11:53:49;;;;;;;28.73;5.30;;;;;;;;;;5027753;28;20475;-64
2024/01/23 11:56:16;;;;;;;25.60;5.53;;;;;;;;;;5027610;28;20050;-64
2024/01/23 11:58:42;;;;;;;28.50;7.47;;;;;;;;;;5027549;28;20049;-64
2024/01/23 12:01:09;;;;;;;28.30;5.47;;;;;;;;;;5027505;28;20499;-64
2024/01/23 12:03:35;;;;;;;31.50;6.07;;;;;;;;;;5027525;28;20423;-64
2024/01/23 12:06:04;;;;;;;25.07;5.90;;;;;;;;;;5027519;28;20500;-64
2024/01/23 12:08:30;;;;;;;32.27;6.60;;;;;;;;;;5027978;28;20096;-64
2024/01/23 12:10:57;;;;;;;33.03;5.50;;;;;;;;;;5027750;28;20053;-64
2024/01/23 12:13:24;;;;;;;29.83;5.17;;;;;;;;;;5026178;28;20041;-64
2024/01/23 12:15:50;;;;;;;27.43;5.30;;;;;;;;;;5027459;28;20060;-64
2024/01/23 12:18:18;;;;;;;32.57;7.50;;;;;;;;;;5027499;28;20450;-64
2024/01/23 12:20:48;;;;;;;28.47;5.90;;;;;;;;;;5027817;28;20144;-64
2024/01/23 12:23:15;;;;;;;28.57;5.87;;;;;;;;;;5027668;28;20388;-64
2024/01/23 12:25:41;;;;;;;34.27;6.23;;;;;;;;;;5027454;28;20049;-64
2024/01/23 12:28:07;;;;;;;34.73;9.67;;;;;;;;;;5025833;28;20085;-64
2024/01/23 12:30:34;;;;;;;29.57;6.67;;;;;;;;;;5027612;28;20128;-64
2024/01/23 12:33:00;;;;;;;32.37;6.00;;;;;;;;;;5027250;28;20049;-64
2024/01/23 12:35:26;;;;;;;23.97;5.93;;;;;;;;;;5027179;28;20053;-64
2024/01/23 12:37:52;;;;;;;28.43;6.30;;;;;;;;;;5028158;28;20045;-64
2024/01/23 12:40:20;;;;;;;35.70;7.07;;;;;;;;;;5029947;28;20042;-64
2024/01/23 12:42:49;;;;;;;27.47;6.00;;;;;;;;;;5030476;28;20049;-64
2024/01/23 12:45:15;;;;;;;31.47;6.83;;;;;;;;;;5030817;28;20144;-64
2024/01/23 12:47:43;;;;;;;23.77;5.90;;;;;;;;;;5030851;28;20095;-64
2024/01/23 12:50:17;;;;;;;26.40;6.90;;;;;;;;;;5030769;28;20120;-64
2024/01/23 12:52:43;;;;;;;;;;;;;;;;;;5031546;28;20158;-64
2024/01/23 12:55:09;;;;;;;30.67;5.90;;;;;;;;;;5030528;28;20450;-64
2024/01/23 12:57:35;;;;;;;31.37;6.57;;;;;;;;;;5030278;28;20046;-64
2024/01/23 13:00:02;;;;;;;29.73;5.87;;;;;;;;;;5030483;28;20045;-64
2024/01/23 13:02:28;;;;;;;26.93;5.33;;;;;;;;;;5030927;28;20041;-64
2024/01/23 13:04:54;;;;;;;29.93;7.17;;;;;;;;;;5042882;28;20102;-64
2024/01/23 13:07:20;;;;;;;28.20;5.37;;;;;;;;;;5049006;28;20044;-64
2024/01/23 13:09:46;;;;;;;30.70;7.43;;;;;;;;;;5049357;28;20048;-64
2024/01/23 13:12:12;;;;;;;24.97;5.90;;;;;;;;;;5050427;28;20049;-64
2024/01/23 13:14:39;;;;;;;25.23;5.87;;;;;;;;;;5050649;28;20434;-64
2024/01/23 13:17:05;;;;;;;26.50;6.00;;;;;;;;;;5050097;28;20053;-64
2024/01/23 13:19:31;;;;;;;23.70;5.87;;;;;;;;;;5050599;28;20381;-64
2024/01/23 13:22:00;;;;;;;23.60;4.57;;;;;;;;;;5050486;28;20127;-64
2024/01/23 13:24:26;;;;;;;23.43;5.43;;;;;;;;;;5050341;28;20068;-64
2024/01/23 13:26:52;;;;;;;34.47;6.03;;;;;;;;;;5049919;28;20045;-64
2024/01/23 13:29:19;;;;;;;21.37;5.93;;;;;;;;;;5049503;28;20045;-64
2024/01/23 13:31:45;;;;;;;23.70;5.83;;;;;;;;;;5050123;28;20049;-64
2024/01/23 13:34:12;;;;;;;21.77;4.37;;;;;;;;;;5048358;28;20094;-64
2024/01/23 13:36:38;;;;;;;29.07;6.50;;;;;;;;;;5049619;28;20530;-64
2024/01/23 13:39:13;;;;;;;16.97;4.80;;;;;;;;;;5049956;28;20048;-64
2024/01/23 13:41:44;;;;;;;20.30;4.20;;;;;;;;;;5049245;28;20048;-64
2024/01/23 13:44:11;;;;;;;22.80;4.87;;;;;;;;;;5049669;28;20048;-64
2024/01/23 13:46:37;;;;;;;24.43;5.03;;;;;;;;;;5049872;28;20119;-64
2024/01/23 13:49:03;;;;;;;26.73;5.43;;;;;;;;;;5048819;28;20431;-64
2024/01/23 13:51:30;;;;;;;26.07;5.13;;;;;;;;;;5048932;28;20423;-64
2024/01/23 13:53:56;;;;;;;28.07;5.50;;;;;;;;;;5049225;28;20076;-64
2024/01/23 13:56:22;;;;;;;30.13;6.00;;;;;;;;;;5049549;28;20048;-64
2024/01/23 13:58:49;;;;;;;23.13;4.57;;;;;;;;;;5049665;28;20053;-64
2024/01/23 14:01:15;;;;;;;30.27;5.90;;;;;;;;;;5049341;28;20143;-64
2024/01/23 14:03:41;;;;;;;28.53;5.27;;;;;;;;;;5049745;28;20443;-64
2024/01/23 14:06:07;;;;;;;28.57;5.17;;;;;;;;;;5049223;28;20083;-64
2024/01/23 14:08:34;;;;;;;34.93;5.93;;;;;;;;;;5048849;28;20049;-64
2024/01/23 14:11:00;;;;;;;30.03;5.57;;;;;;;;;;5049438;28;20412;-64
2024/01/23 14:13:26;;;;;;;28.17;5.00;;;;;;;;;;5049544;28;20398;-64
2024/01/23 14:15:52;;;;;;;27.43;6.83;;;;;;;;;;5048516;28;20049;-64
2024/01/23 14:18:19;;;;;;;26.27;5.83;;;;;;;;;;5049367;28;20045;-64
2024/01/23 14:20:45;;;;;;;32.27;5.00;;;;;;;;;;5049124;28;20041;-64
2024/01/23 14:23:11;;;;;;;22.33;4.47;;;;;;;;;;5048879;28;20049;-64
2024/01/23 14:25:37;;;;;;;25.77;4.70;;;;;;;;;;5049159;28;20041;-64
2024/01/23 14:28:04;;;;;;;22.90;5.73;;;;;;;;;;5048314;28;20053;-64